createdAt,value
2018-12-05T00:01:24.864Z,4.90
2018-12-05T00:03:53.318Z,4.90
2018-12-05T00:06:21.751Z,4.90
2018-12-05T00:08:51.629Z,4.90
2018-12-05T00:11:20.452Z,4.90
2018-12-05T00:13:48.905Z,4.80
2018-12-05T00:16:18.130Z,4.80
2018-12-05T00:18:46.647Z,4.80
2018-12-05T00:21:15.159Z,4.90
2018-12-05T00:23:43.612Z,4.80
2018-12-05T00:26:12.072Z,4.80
2018-12-05T00:28:40.565Z,4.80
2018-12-05T00:31:09.059Z,4.90
2018-12-05T00:33:38.569Z,4.80
2018-12-05T00:36:07.118Z,4.80
2018-12-05T00:38:35.577Z,4.80
2018-12-05T00:41:04.065Z,4.80
2018-12-05T00:43:32.583Z,4.80
2018-12-05T00:46:01.146Z,4.70
2018-12-05T00:48:29.575Z,4.70
2018-12-05T00:50:57.993Z,4.60
2018-12-05T00:53:26.602Z,4.60
2018-12-05T00:55:55.230Z,4.60
2018-12-05T00:58:23.697Z,4.70
2018-12-05T01:00:52.163Z,4.70
2018-12-05T01:03:20.608Z,4.80
2018-12-05T01:05:49.071Z,4.80
2018-12-05T01:08:17.564Z,4.80
2018-12-05T01:10:46.076Z,4.80
2018-12-05T01:13:14.719Z,4.80
2018-12-05T01:15:43.165Z,4.80
2018-12-05T01:18:11.628Z,4.80
2018-12-05T01:20:40.077Z,4.80
2018-12-05T01:23:08.675Z,4.70
2018-12-05T01:25:37.464Z,4.70
2018-12-05T01:28:05.929Z,4.70
2018-12-05T01:30:34.395Z,4.70
2018-12-05T01:33:02.871Z,4.70
2018-12-05T01:35:31.695Z,4.70
2018-12-05T01:38:00.133Z,4.70
2018-12-05T01:40:28.574Z,4.70
2018-12-05T01:42:57.032Z,4.70
2018-12-05T01:45:25.485Z,4.70
2018-12-05T01:47:54.655Z,4.60
2018-12-05T01:50:23.296Z,4.60
2018-12-05T01:52:52.140Z,4.60
2018-12-05T01:55:20.702Z,4.60
2018-12-05T01:57:49.170Z,4.60
2018-12-05T02:00:17.829Z,4.60
2018-12-05T02:02:46.304Z,4.60
2018-12-05T02:05:14.875Z,4.60
2018-12-05T02:07:43.354Z,4.60
2018-12-05T02:10:11.833Z,4.60
2018-12-05T02:12:40.308Z,4.60
2018-12-05T02:15:08.888Z,4.50
2018-12-05T02:17:37.376Z,4.50
2018-12-05T02:20:06.009Z,4.50
2018-12-05T02:22:34.488Z,4.60
2018-12-05T02:25:02.947Z,4.50
2018-12-05T02:27:31.381Z,4.50
2018-12-05T02:29:59.959Z,4.50
2018-12-05T02:32:28.395Z,4.50
2018-12-05T02:34:56.830Z,4.50
2018-12-05T02:37:25.329Z,4.50
2018-12-05T02:39:53.784Z,4.50
2018-12-05T02:42:22.221Z,4.50
2018-12-05T02:44:50.688Z,4.50
2018-12-05T02:47:19.138Z,4.50
2018-12-05T02:49:47.620Z,4.50
2018-12-05T02:52:16.247Z,4.50
2018-12-05T02:54:44.707Z,4.50
2018-12-05T02:57:13.187Z,4.50
2018-12-05T02:59:41.672Z,4.50
2018-12-05T03:02:10.147Z,4.50
2018-12-05T03:04:38.623Z,4.50
2018-12-05T03:07:07.113Z,4.50
2018-12-05T03:09:35.667Z,4.50
2018-12-05T03:12:04.178Z,4.50
2018-12-05T03:14:32.676Z,4.50
2018-12-05T03:17:01.165Z,4.50
2018-12-05T03:19:29.691Z,4.50
2018-12-05T03:21:58.167Z,4.50
2018-12-05T03:24:26.638Z,4.50
2018-12-05T03:26:55.142Z,4.50
2018-12-05T03:29:23.646Z,4.60
2018-12-05T03:31:52.085Z,4.60
2018-12-05T03:34:20.562Z,4.60
2018-12-05T03:36:48.994Z,4.60
2018-12-05T03:39:17.484Z,4.60
2018-12-05T03:41:45.960Z,4.50
2018-12-05T03:44:14.447Z,4.50
2018-12-05T03:46:42.946Z,4.50
2018-12-05T03:49:11.443Z,4.50
2018-12-05T03:51:39.900Z,4.50
2018-12-05T03:54:08.381Z,4.50
2018-12-05T03:56:36.874Z,4.50
2018-12-05T03:59:05.330Z,4.50
2018-12-05T04:01:33.784Z,4.40
2018-12-05T04:04:02.343Z,4.40
2018-12-05T04:06:30.809Z,4.40
2018-12-05T04:08:59.283Z,4.40
2018-12-05T04:11:27.770Z,4.40
2018-12-05T04:13:56.231Z,4.40
2018-12-05T04:16:24.709Z,4.40
2018-12-05T04:18:53.197Z,4.40
2018-12-05T04:21:21.655Z,4.40
2018-12-05T04:23:50.126Z,4.40
2018-12-05T04:26:18.783Z,4.30
2018-12-05T04:28:47.267Z,4.30
2018-12-05T04:31:16.403Z,4.30
2018-12-05T04:33:44.864Z,4.40
2018-12-05T04:36:13.348Z,4.40
2018-12-05T04:38:41.804Z,4.40
2018-12-05T04:41:10.334Z,4.40
2018-12-05T04:43:38.809Z,4.40
2018-12-05T04:46:07.285Z,4.40
2018-12-05T04:48:35.725Z,4.40
2018-12-05T04:51:04.238Z,4.40
2018-12-05T04:53:32.726Z,4.40
2018-12-05T04:56:01.199Z,4.40
2018-12-05T04:58:29.663Z,4.40
2018-12-05T05:00:58.147Z,4.40
2018-12-05T05:03:26.573Z,4.40
2018-12-05T05:05:55.052Z,4.30
2018-12-05T05:08:23.487Z,4.30
2018-12-05T05:10:51.971Z,4.40
2018-12-05T05:13:20.396Z,4.40
2018-12-05T05:15:48.942Z,4.40
2018-12-05T05:18:17.391Z,4.40
2018-12-05T05:20:45.898Z,4.40
2018-12-05T05:23:14.367Z,4.40
2018-12-05T05:25:42.844Z,4.40
2018-12-05T05:28:17.955Z,4.40
2018-12-05T05:30:47.228Z,4.30
2018-12-05T05:33:15.649Z,4.30
2018-12-05T05:35:44.119Z,4.30
2018-12-05T05:38:12.634Z,4.30
2018-12-05T05:40:41.104Z,4.20
2018-12-05T05:43:09.555Z,4.20
2018-12-05T05:45:38.018Z,4.20
2018-12-05T05:48:08.892Z,4.30
2018-12-05T05:50:37.351Z,4.20
2018-12-05T05:53:05.833Z,4.20
2018-12-05T05:55:34.277Z,4.20
2018-12-05T05:58:02.745Z,4.20
2018-12-05T06:00:31.229Z,4.20
2018-12-05T06:02:59.654Z,4.20
2018-12-05T06:05:28.106Z,4.20
2018-12-05T06:07:56.535Z,4.20
2018-12-05T06:10:24.999Z,4.20
2018-12-05T06:12:53.443Z,4.20
2018-12-05T06:15:21.904Z,4.30
2018-12-05T06:17:50.370Z,4.20
2018-12-05T06:20:18.810Z,4.20
2018-12-05T06:22:47.295Z,4.20
2018-12-05T06:25:15.788Z,4.20
2018-12-05T06:27:44.264Z,4.20
2018-12-05T06:30:12.792Z,4.20
2018-12-05T06:32:41.276Z,4.20
2018-12-05T06:35:09.816Z,4.20
2018-12-05T06:37:44.751Z,4.20
2018-12-05T06:40:13.283Z,4.20
2018-12-05T06:42:41.708Z,4.20
2018-12-05T06:45:10.162Z,4.20
2018-12-05T06:47:38.652Z,4.20
2018-12-05T06:50:08.494Z,4.20
2018-12-05T06:52:37.090Z,4.20
2018-12-05T06:55:06.456Z,4.20
2018-12-05T06:57:34.896Z,4.20
2018-12-05T07:00:03.434Z,4.20
2018-12-05T07:02:31.915Z,4.20
2018-12-05T07:05:00.403Z,4.20
2018-12-05T07:07:28.852Z,4.20
2018-12-05T07:09:57.341Z,4.20
2018-12-05T07:12:25.899Z,4.20
2018-12-05T07:14:54.360Z,4.20
2018-12-05T07:17:22.880Z,4.20
2018-12-05T07:22:31.015Z,4.20
2018-12-05T07:24:59.526Z,4.20
2018-12-05T07:27:28.072Z,4.20
2018-12-05T07:29:56.722Z,4.20
2018-12-05T07:32:25.240Z,4.20
2018-12-05T07:34:53.724Z,4.30
2018-12-05T07:37:22.277Z,4.30
2018-12-05T07:39:51.012Z,4.20
2018-12-05T07:42:19.627Z,4.30
2018-12-05T07:44:48.178Z,4.30
2018-12-05T07:47:16.915Z,4.30
2018-12-05T07:49:45.511Z,4.30
2018-12-05T07:52:14.069Z,4.30
2018-12-05T07:54:42.635Z,4.30
2018-12-05T07:57:11.179Z,4.40
2018-12-05T07:59:39.786Z,4.40
2018-12-05T08:02:08.326Z,4.40
2018-12-05T08:04:36.855Z,4.40
2018-12-05T08:07:05.504Z,4.40
2018-12-05T08:09:34.132Z,4.50
2018-12-05T08:12:02.904Z,4.50
2018-12-05T08:14:31.431Z,4.60
2018-12-05T08:16:59.891Z,4.60
2018-12-05T08:19:28.676Z,4.60
2018-12-05T08:21:57.190Z,4.60
2018-12-05T08:24:25.734Z,4.60
2018-12-05T08:26:54.379Z,4.60
2018-12-05T08:29:22.983Z,4.60
2018-12-05T08:34:37.517Z,4.50
2018-12-05T08:37:06.077Z,4.60
2018-12-05T08:39:34.744Z,4.60
2018-12-05T08:42:03.411Z,4.60
2018-12-05T08:44:31.953Z,4.60
2018-12-05T08:47:01.383Z,4.60
2018-12-05T08:49:29.923Z,4.60
2018-12-05T08:51:58.499Z,4.60
2018-12-05T08:54:27.074Z,4.70
2018-12-05T08:56:55.633Z,4.70
2018-12-05T08:59:24.118Z,4.80
2018-12-05T09:01:52.653Z,4.80
2018-12-05T09:04:21.156Z,4.80
2018-12-05T09:06:49.829Z,4.80
2018-12-05T09:09:18.542Z,4.90
2018-12-05T09:11:47.767Z,4.90
2018-12-05T09:14:16.301Z,4.90
2018-12-05T09:16:44.852Z,5.00
2018-12-05T09:19:13.323Z,5.00
2018-12-05T09:21:42.168Z,5.10
2018-12-05T09:24:10.724Z,5.10
2018-12-05T09:26:39.282Z,5.20
2018-12-05T09:29:07.826Z,5.20
2018-12-05T09:31:36.311Z,5.20
2018-12-05T09:34:04.981Z,5.20
2018-12-05T09:36:33.472Z,5.20
2018-12-05T09:39:02.020Z,5.30
2018-12-05T09:41:30.465Z,5.30
2018-12-05T09:43:59.074Z,5.30
2018-12-05T09:46:27.688Z,5.40
2018-12-05T09:48:56.206Z,5.40
2018-12-05T09:51:24.767Z,5.40
2018-12-05T09:53:53.272Z,5.50
2018-12-05T09:56:22.480Z,5.50
2018-12-05T09:58:50.979Z,5.50
2018-12-05T10:01:19.526Z,5.50
2018-12-05T10:03:48.094Z,5.50
2018-12-05T10:06:16.642Z,5.60
2018-12-05T10:08:45.213Z,5.60
2018-12-05T10:11:13.850Z,5.70
2018-12-05T10:13:42.377Z,5.70
2018-12-05T10:16:10.938Z,5.80
2018-12-05T10:18:39.498Z,5.80
2018-12-05T10:21:07.984Z,5.80
2018-12-05T10:23:36.608Z,5.80
2018-12-05T10:26:05.124Z,5.90
2018-12-05T10:28:33.660Z,5.90
2018-12-05T10:31:02.156Z,5.80
2018-12-05T10:33:30.654Z,5.80
2018-12-05T10:35:59.160Z,5.80
2018-12-05T10:38:27.682Z,5.80
2018-12-05T10:40:56.218Z,5.80
2018-12-05T10:43:24.797Z,5.70
2018-12-05T10:45:53.501Z,5.70
2018-12-05T10:48:22.039Z,5.70
2018-12-05T10:50:50.574Z,5.80
2018-12-05T10:53:19.130Z,5.90
2018-12-05T10:55:47.654Z,6.00
2018-12-05T10:58:16.167Z,6.00
2018-12-05T11:00:50.107Z,6.10
2018-12-05T11:03:24.037Z,6.00
2018-12-05T11:05:57.784Z,6.00
2018-12-05T11:08:31.572Z,6.20
2018-12-05T11:13:08.980Z,6.30
2018-12-05T11:15:42.953Z,6.40
2018-12-05T11:18:16.872Z,6.50
2018-12-05T11:20:50.943Z,6.20
2018-12-05T11:23:25.069Z,6.40
2018-12-05T11:25:54.471Z,6.50
2018-12-05T11:28:23.150Z,6.50
2018-12-05T11:30:51.717Z,6.40
2018-12-05T11:33:20.305Z,6.30
2018-12-05T11:35:48.939Z,6.30
2018-12-05T11:38:17.487Z,6.40
2018-12-05T11:40:46.105Z,6.40
2018-12-05T11:43:14.674Z,6.40
2018-12-05T11:45:43.215Z,6.40
2018-12-05T11:48:11.720Z,6.40
2018-12-05T11:50:40.285Z,6.50
2018-12-05T11:53:08.911Z,6.50
2018-12-05T11:55:37.422Z,6.50
2018-12-05T11:58:06.089Z,6.50
2018-12-05T12:00:34.636Z,6.50
2018-12-05T12:03:03.380Z,6.60
2018-12-05T12:05:32.147Z,6.60
2018-12-05T12:08:00.726Z,6.60
2018-12-05T12:10:34.597Z,6.70
2018-12-05T12:13:05.719Z,6.70
2018-12-05T12:15:34.284Z,6.70
2018-12-05T12:18:02.791Z,6.80
2018-12-05T12:20:31.302Z,6.80
2018-12-05T12:23:00.374Z,6.80
2018-12-05T12:25:29.527Z,6.80
2018-12-05T12:27:58.051Z,6.80
2018-12-05T12:30:26.709Z,6.80
2018-12-05T12:32:55.261Z,6.80
2018-12-05T12:35:23.781Z,6.80
2018-12-05T12:37:52.304Z,6.80
2018-12-05T12:40:20.956Z,6.90
2018-12-05T12:42:49.423Z,7.00
2018-12-05T12:45:17.951Z,7.00
2018-12-05T12:47:46.685Z,7.00
2018-12-05T12:50:15.183Z,7.00
2018-12-05T12:52:43.809Z,7.10
2018-12-05T12:55:12.347Z,7.10
2018-12-05T12:57:40.917Z,7.00
2018-12-05T13:00:10.497Z,7.00
2018-12-05T13:02:39.018Z,7.00
2018-12-05T13:05:07.502Z,7.10
2018-12-05T13:07:42.563Z,7.20
2018-12-05T13:10:11.151Z,7.20
2018-12-05T13:12:39.652Z,7.20
2018-12-05T13:15:08.235Z,7.20
2018-12-05T13:17:36.764Z,7.20
2018-12-05T13:20:05.845Z,7.20
2018-12-05T13:22:34.367Z,7.20
2018-12-05T13:25:02.961Z,7.30
2018-12-05T13:27:31.543Z,7.40
2018-12-05T13:30:00.241Z,7.40
2018-12-05T13:32:28.815Z,7.40
2018-12-05T13:34:57.421Z,7.30
2018-12-05T13:37:26.130Z,7.40
2018-12-05T13:39:54.663Z,7.50
2018-12-05T13:42:23.272Z,7.50
2018-12-05T13:44:51.786Z,7.60
2018-12-05T13:47:20.398Z,7.70
2018-12-05T13:49:49.133Z,7.80
2018-12-05T13:52:17.661Z,7.90
2018-12-05T13:54:46.233Z,8.00
2018-12-05T13:57:14.959Z,8.00
2018-12-05T13:59:43.528Z,8.10
2018-12-05T14:02:12.068Z,8.10
2018-12-05T14:04:40.704Z,8.10
2018-12-05T14:07:09.255Z,8.10
2018-12-05T14:09:37.802Z,8.20
2018-12-05T14:12:08.399Z,8.20
2018-12-05T14:14:37.564Z,8.10
2018-12-05T14:17:06.156Z,8.10
2018-12-05T14:19:34.808Z,8.10
2018-12-05T14:22:03.326Z,8.10
2018-12-05T14:24:31.900Z,7.90
2018-12-05T14:27:00.453Z,7.90
2018-12-05T14:29:29.042Z,7.80
2018-12-05T14:31:57.756Z,7.80
2018-12-05T14:34:26.351Z,7.80
2018-12-05T14:36:54.973Z,7.80
2018-12-05T14:39:23.491Z,7.70
2018-12-05T14:41:52.271Z,7.70
2018-12-05T14:44:20.875Z,7.60
2018-12-05T14:46:49.468Z,7.50
2018-12-05T14:49:18.059Z,7.50
2018-12-05T14:51:46.652Z,7.30
2018-12-05T14:54:15.268Z,7.40
2018-12-05T14:56:43.927Z,7.30
2018-12-05T14:59:12.489Z,7.30
2018-12-05T15:01:41.086Z,7.30
2018-12-05T15:04:09.644Z,7.30
2018-12-05T15:06:38.423Z,7.30
2018-12-05T15:09:08.079Z,7.20
2018-12-05T15:11:36.623Z,7.10
2018-12-05T15:14:05.240Z,7.10
2018-12-05T15:16:33.880Z,7.10
2018-12-05T15:19:02.467Z,7.00
2018-12-05T15:21:31.165Z,7.00
2018-12-05T15:23:59.711Z,7.00
2018-12-05T15:26:28.429Z,6.90
2018-12-05T15:28:56.979Z,6.90
2018-12-05T15:31:25.502Z,6.90
2018-12-05T15:33:54.068Z,6.80
2018-12-05T15:36:22.560Z,6.80
2018-12-05T15:38:51.033Z,6.70
2018-12-05T15:41:19.598Z,6.70
2018-12-05T15:43:48.085Z,6.70
2018-12-05T15:46:16.583Z,6.70
2018-12-05T15:48:45.049Z,6.60
2018-12-05T15:51:13.492Z,6.60
2018-12-05T15:53:41.946Z,6.60
2018-12-05T15:56:10.417Z,6.50
2018-12-05T15:58:38.899Z,6.40
2018-12-05T16:01:07.399Z,6.40
2018-12-05T16:03:42.934Z,6.30
2018-12-05T16:06:06.517Z,6.30
2018-12-05T16:08:34.977Z,6.20
2018-12-05T16:11:03.423Z,6.10
2018-12-05T16:13:31.903Z,6.10
2018-12-05T16:16:00.417Z,6.00
2018-12-05T16:18:28.871Z,6.00
2018-12-05T16:20:57.299Z,5.90
2018-12-05T16:23:25.826Z,5.90
2018-12-05T16:25:55.331Z,5.90
2018-12-05T16:28:23.940Z,5.90
2018-12-05T16:30:52.388Z,5.90
2018-12-05T16:33:20.819Z,5.90
2018-12-05T16:35:49.310Z,5.90
2018-12-05T16:38:17.827Z,5.90
2018-12-05T16:40:46.288Z,5.90
2018-12-05T16:43:14.787Z,5.90
2018-12-05T16:45:43.239Z,5.80
2018-12-05T16:48:11.688Z,5.80
2018-12-05T16:50:40.191Z,5.80
2018-12-05T16:53:08.772Z,5.80
2018-12-05T16:55:37.920Z,5.70
2018-12-05T16:58:06.382Z,5.70
2018-12-05T17:00:34.844Z,5.80
2018-12-05T17:03:03.323Z,5.80
2018-12-05T17:05:31.839Z,5.80
2018-12-05T17:08:00.280Z,5.80
2018-12-05T17:10:28.739Z,5.80
2018-12-05T17:12:57.200Z,5.80
2018-12-05T17:15:26.130Z,5.80
2018-12-05T17:17:55.052Z,5.80
2018-12-05T17:20:23.527Z,5.80
2018-12-05T17:22:51.969Z,5.80
2018-12-05T17:25:20.584Z,5.80
2018-12-05T17:27:49.993Z,5.70
2018-12-05T17:30:18.559Z,5.70
2018-12-05T17:32:47.127Z,5.70
2018-12-05T17:35:15.611Z,5.80
2018-12-05T17:37:44.065Z,5.80
2018-12-05T17:40:12.547Z,5.70
2018-12-05T17:42:40.996Z,5.70
2018-12-05T17:45:09.472Z,5.90
2018-12-05T17:47:37.948Z,5.80
2018-12-05T17:50:06.428Z,5.80
2018-12-05T17:52:34.880Z,5.70
2018-12-05T17:55:03.341Z,5.60
2018-12-05T17:57:31.795Z,5.60
2018-12-05T18:00:00.291Z,5.60
2018-12-05T18:02:28.827Z,5.60
2018-12-05T18:04:57.327Z,5.50
2018-12-05T18:07:25.787Z,5.50
2018-12-05T18:09:54.490Z,5.50
2018-12-05T18:12:23.527Z,5.50
2018-12-05T18:14:52.011Z,5.50
2018-12-05T18:17:20.463Z,5.50
2018-12-05T18:19:49.004Z,5.50
2018-12-05T18:22:17.465Z,5.40
2018-12-05T18:24:45.906Z,5.30
2018-12-05T18:27:14.411Z,5.40
2018-12-05T18:29:42.891Z,5.40
2018-12-05T18:32:11.362Z,5.40
2018-12-05T18:34:39.859Z,5.40
2018-12-05T18:37:08.320Z,5.40
2018-12-05T18:39:36.775Z,5.40
2018-12-05T18:42:05.236Z,5.30
2018-12-05T18:44:33.721Z,5.30
2018-12-05T18:47:02.320Z,5.30
2018-12-05T18:49:30.781Z,5.30
2018-12-05T18:51:59.283Z,5.30
2018-12-05T18:54:28.312Z,5.30
2018-12-05T18:56:56.790Z,5.20
2018-12-05T18:59:25.270Z,5.20
2018-12-05T19:01:53.733Z,5.20
2018-12-05T19:04:22.248Z,5.10
2018-12-05T19:06:51.044Z,5.10
2018-12-05T19:09:26.546Z,5.10
2018-12-05T19:11:50.038Z,5.10
2018-12-05T19:14:24.076Z,5.00
2018-12-05T19:16:57.455Z,5.00
2018-12-05T19:19:25.932Z,5.00
2018-12-05T19:21:54.392Z,5.00
2018-12-05T19:24:22.872Z,5.00
2018-12-05T19:26:51.330Z,5.00
2018-12-05T19:29:19.770Z,5.00
2018-12-05T19:31:48.771Z,5.00
2018-12-05T19:34:17.251Z,5.00
2018-12-05T19:36:45.704Z,5.00
2018-12-05T19:39:14.212Z,5.00
2018-12-05T19:41:42.711Z,4.90
2018-12-05T19:44:11.151Z,5.00
2018-12-05T19:46:39.604Z,4.90
2018-12-05T19:49:08.112Z,5.00
2018-12-05T19:51:36.567Z,5.00
2018-12-05T19:54:05.092Z,5.00
2018-12-05T19:56:33.525Z,5.00
2018-12-05T19:59:01.945Z,5.30
2018-12-05T20:01:30.363Z,5.40
2018-12-05T20:03:59.993Z,5.30
2018-12-05T20:06:28.504Z,5.30
2018-12-05T20:08:56.988Z,5.20
2018-12-05T20:11:25.502Z,5.10
2018-12-05T20:13:54.379Z,5.10
2018-12-05T20:16:23.007Z,5.10
2018-12-05T20:18:52.142Z,5.10
2018-12-05T20:21:21.268Z,5.00
2018-12-05T20:23:49.948Z,4.90
2018-12-05T20:26:18.435Z,4.90
2018-12-05T20:28:46.939Z,4.90
2018-12-05T20:31:15.406Z,4.80
2018-12-05T20:33:43.966Z,4.90
2018-12-05T20:36:12.415Z,4.90
2018-12-05T20:38:40.874Z,4.90
2018-12-05T20:41:09.677Z,4.90
2018-12-05T20:43:38.796Z,4.80
2018-12-05T20:46:07.859Z,4.90
2018-12-05T20:48:36.954Z,4.90
2018-12-05T20:51:05.890Z,4.90
2018-12-05T20:53:34.737Z,4.90
2018-12-05T20:56:03.187Z,4.90
2018-12-05T20:58:31.675Z,4.90
2018-12-05T21:01:00.095Z,4.90
2018-12-05T21:03:28.555Z,4.80
2018-12-05T21:05:57.637Z,4.90
2018-12-05T21:08:27.187Z,4.80
2018-12-05T21:10:56.083Z,4.80
2018-12-05T21:13:24.522Z,4.80
2018-12-05T21:15:53.034Z,4.80
2018-12-05T21:18:21.472Z,4.70
2018-12-05T21:20:50.299Z,4.70
2018-12-05T21:23:19.380Z,4.70
2018-12-05T21:25:48.359Z,4.80
2018-12-05T21:28:17.500Z,4.80
2018-12-05T21:30:46.286Z,4.80
2018-12-05T21:33:14.971Z,4.80
2018-12-05T21:35:43.435Z,4.80
2018-12-05T21:38:11.878Z,4.80
2018-12-05T21:40:40.646Z,4.70
2018-12-05T21:43:09.738Z,4.80
2018-12-05T21:45:38.940Z,4.80
2018-12-05T21:48:08.320Z,4.80
2018-12-05T21:50:37.310Z,4.70
2018-12-05T21:53:06.097Z,4.60
2018-12-05T21:55:34.543Z,4.70
2018-12-05T21:58:03.037Z,4.70
2018-12-05T22:00:31.460Z,4.70
2018-12-05T22:02:59.887Z,4.60
2018-12-05T22:05:28.331Z,4.60
2018-12-05T22:07:56.759Z,4.60
2018-12-05T22:10:25.237Z,4.60
2018-12-05T22:12:53.659Z,4.60
2018-12-05T22:15:22.155Z,4.70
2018-12-05T22:17:50.595Z,4.60
2018-12-05T22:20:19.023Z,4.60
2018-12-05T22:22:47.483Z,4.60
2018-12-05T22:25:15.914Z,4.50
2018-12-05T22:27:44.396Z,4.50
2018-12-05T22:30:12.879Z,4.50
2018-12-05T22:32:41.355Z,4.50
2018-12-05T22:35:09.807Z,4.50
2018-12-05T22:37:38.238Z,4.50
2018-12-05T22:40:08.020Z,4.60
2018-12-05T22:42:36.448Z,4.60
2018-12-05T22:45:05.248Z,4.60
2018-12-05T22:47:33.700Z,4.60
2018-12-05T22:50:02.132Z,4.60
2018-12-05T22:52:30.579Z,4.60
2018-12-05T22:54:59.013Z,4.70
2018-12-05T22:57:27.464Z,4.70
2018-12-05T22:59:55.940Z,4.60
2018-12-05T23:02:24.518Z,4.70
2018-12-05T23:04:52.969Z,4.70
2018-12-05T23:07:22.901Z,4.70
2018-12-05T23:09:51.365Z,4.60
2018-12-05T23:12:19.814Z,4.60
2018-12-05T23:14:48.382Z,4.60
2018-12-05T23:17:16.816Z,4.50
2018-12-05T23:19:45.234Z,4.50
2018-12-05T23:22:13.683Z,4.50
2018-12-05T23:24:42.167Z,4.50
2018-12-05T23:27:10.655Z,4.50
2018-12-05T23:29:39.119Z,4.60
2018-12-05T23:32:07.587Z,4.60
2018-12-05T23:34:36.026Z,4.60
2018-12-05T23:37:04.527Z,4.60
2018-12-05T23:39:32.992Z,4.50
2018-12-05T23:42:01.433Z,4.50
2018-12-05T23:44:29.944Z,4.50
2018-12-05T23:46:58.395Z,4.50
2018-12-05T23:49:26.948Z,4.60
2018-12-05T23:51:55.491Z,4.60
2018-12-05T23:54:23.912Z,4.50
2018-12-05T23:56:52.371Z,4.50
2018-12-05T23:59:20.882Z,4.50
